Time;durP1;ratioP1;P1;durP2;ratioP2;P2;SDS_P1;SDS_P2;PMS_P1;PMS_P2;Temp;Humidity;BMP_temperature;BMP_pressure;BME280_temperature;BME280_humidity;BME280_pressure;Samples;Min_cycle;Max_cycle;Signal;HPM_P1;HPM_P2
2023/11/25 00:00:27;;;;;;;0.60;0.60;;;;;;;1.08;100.00;95949.81;29394;223;64009;-65
2023/11/25 00:01:03;;;;;;;0.60;0.60;;;;;;;1.11;100.00;95953.84;29395;267;63009;-63
2023/11/25 00:01:34;;;;;;;0.60;0.60;;;;;;;1.16;100.00;95954.69;29395;246;63004;-66
2023/11/25 00:02:11;;;;;;;0.60;0.60;;;;;;;1.19;100.00;95959.53;29373;227;63009;-69
2023/11/25 00:02:43;;;;;;;0.62;0.62;;;;;;;1.21;100.00;95954.72;29395;340;63004;-64
2023/11/25 00:03:15;;;;;;;0.60;0.60;;;;;;;1.22;100.00;95956.34;29373;240;63009;-63
2023/11/25 00:03:47;;;;;;;0.60;0.60;;;;;;;1.18;100.00;95970.47;29395;222;63004;-64
2023/11/25 00:04:19;;;;;;;0.60;0.60;;;;;;;1.19;100.00;95961.37;29395;206;63009;-63
2023/11/25 00:04:54;;;;;;;0.60;0.60;;;;;;;1.18;100.00;95959.78;29394;290;64009;-57
2023/11/25 00:05:25;;;;;;;0.70;0.70;;;;;;;1.21;100.00;95959.25;29395;213;63017;-62
2023/11/25 00:05:57;;;;;;;0.60;0.60;;;;;;;1.22;100.00;95963.56;29395;224;63000;-61
2023/11/25 00:06:29;;;;;;;0.60;0.60;;;;;;;1.19;100.00;95951.50;29395;234;63009;-60
2023/11/25 00:07:00;;;;;;;0.60;0.60;;;;;;;1.17;100.00;95958.16;29395;213;63005;-64
2023/11/25 00:07:33;;;;;;;0.90;0.90;;;;;;;1.17;100.00;95952.81;29394;214;64013;-67
2023/11/25 00:08:04;;;;;;;0.60;0.60;;;;;;;1.17;100.00;95958.97;29395;315;63004;-64
2023/11/25 00:08:36;;;;;;;0.80;0.80;;;;;;;1.17;100.00;95969.66;29373;214;63009;-60
2023/11/25 00:09:08;;;;;;;0.60;0.60;;;;;;;1.16;100.00;95968.03;29395;273;63010;-59
2023/11/25 00:09:40;;;;;;;0.85;0.85;;;;;;;1.11;100.00;95968.00;29373;218;63009;-58
2023/11/25 00:10:14;;;;;;;0.68;0.68;;;;;;;1.11;100.00;95964.53;29373;242;63004;-61
2023/11/25 00:10:48;;;;;;;0.62;0.62;;;;;;;1.14;100.00;95967.50;29373;260;63008;-62
2023/11/25 00:11:20;;;;;;;0.60;0.60;;;;;;;1.13;100.00;95968.56;29373;233;63004;-60
2023/11/25 00:11:51;;;;;;;0.65;0.65;;;;;;;1.13;100.00;95981.91;29371;329;64014;-67
2023/11/25 00:12:22;;;;;;;0.70;0.70;;;;;;;1.10;100.00;95963.72;29373;223;63005;-60
2023/11/25 00:12:57;;;;;;;0.60;0.60;;;;;;;1.08;100.00;95973.84;29373;247;63009;-63
2023/11/25 00:13:28;;;;;;;0.70;0.70;;;;;;;1.12;100.00;95966.12;29373;221;63005;-71
2023/11/25 00:13:59;;;;;;;0.70;0.70;;;;;;;1.11;100.00;95970.69;29373;264;63009;-63
2023/11/25 00:14:31;;;;;;;0.60;0.60;;;;;;;1.07;100.00;95966.91;29373;203;63005;-64
2023/11/25 00:15:03;;;;;;;0.60;0.60;;;;;;;1.07;100.00;95966.91;29371;332;64013;-66
2023/11/25 00:15:34;;;;;;;0.60;0.60;;;;;;;1.06;100.00;95967.97;29373;221;63004;-70
2023/11/25 00:16:08;;;;;;;0.70;0.70;;;;;;;1.02;100.00;95966.88;29371;238;64013;-64
2023/11/25 00:16:40;;;;;;;0.70;0.70;;;;;;;0.99;100.00;95962.03;29395;213;63004;-57
2023/11/25 00:17:12;;;;;;;0.65;0.65;;;;;;;1.04;100.00;95964.72;29395;233;63009;-63
2023/11/25 00:17:43;;;;;;;0.60;0.60;;;;;;;1.06;100.00;95965.28;29373;303;63010;-70
2023/11/25 00:18:15;;;;;;;0.68;0.68;;;;;;;1.06;100.00;95973.31;29395;241;63008;-58
2023/11/25 00:18:46;;;;;;;1.60;1.60;;;;;;;1.07;100.00;95974.91;29373;203;63005;-65
2023/11/25 00:19:18;;;;;;;0.65;0.65;;;;;;;1.10;100.00;95970.94;29372;202;64009;-59
2023/11/25 00:19:50;;;;;;;0.60;0.60;;;;;;;1.10;100.00;95974.41;29373;198;63005;-58
2023/11/25 00:20:23;;;;;;;0.70;0.70;;;;;;;1.06;100.00;95967.97;29373;322;63009;-64
2023/11/25 00:20:57;;;;;;;0.65;0.65;;;;;;;1.09;100.00;95959.44;29373;237;63000;-58
2023/11/25 00:21:28;;;;;;;0.70;0.70;;;;;;;1.11;100.00;95967.19;29394;216;64013;-58
2023/11/25 00:21:59;;;;;;;1.12;1.12;;;;;;;1.10;100.00;95961.03;29395;208;63005;-70
2023/11/25 00:22:31;;;;;;;0.70;0.70;;;;;;;1.08;100.00;95965.84;29371;238;64013;-58
2023/11/25 00:23:04;;;;;;;0.70;0.70;;;;;;;1.06;100.00;95969.81;29395;206;63004;-62
2023/11/25 00:23:38;;;;;;;0.70;0.70;;;;;;;1.11;100.00;95961.84;29373;230;63009;-62
2023/11/25 00:24:10;;;;;;;0.70;0.70;;;;;;;1.13;100.00;95976.56;29373;198;63014;-54
2023/11/25 00:24:41;;;;;;;0.65;0.65;;;;;;;1.15;100.00;95961.09;29373;223;63009;-73
2023/11/25 00:25:15;;;;;;;0.65;0.65;;;;;;;1.19;100.00;95972.88;29373;281;63004;-68
2023/11/25 00:25:46;;;;;;;0.70;0.70;;;;;;;1.19;100.00;95977.41;29373;289;63008;-59
2023/11/25 00:26:17;;;;;;;0.60;0.60;;;;;;;1.19;100.00;95970.22;29373;209;63005;-64
2023/11/25 00:26:48;;;;;;;0.60;0.60;;;;;;;1.20;100.00;95974.50;29371;336;64014;-65
2023/11/25 00:27:20;;;;;;;0.60;0.60;;;;;;;1.17;100.00;95969.66;29373;332;63005;-60
2023/11/25 00:27:52;;;;;;;0.60;0.60;;;;;;;1.23;100.00;95984.69;29373;312;63009;-71
2023/11/25 00:28:23;;;;;;;2.55;2.45;;;;;;;1.24;100.00;95970.25;29373;356;63005;-60
2023/11/25 00:28:54;;;;;;;0.60;0.60;;;;;;;1.27;100.00;95967.06;29373;202;63009;-62
2023/11/25 00:29:27;;;;;;;0.60;0.60;;;;;;;1.28;100.00;95971.34;29373;310;63005;-61
2023/11/25 00:29:58;;;;;;;0.80;0.80;;;;;;;1.27;100.00;95975.09;29373;256;63009;-66
2023/11/25 00:30:29;;;;;;;0.70;0.70;;;;;;;1.28;100.00;95981.25;29373;232;63004;-57
2023/11/25 00:31:01;;;;;;;0.60;0.60;;;;;;;1.27;100.00;95985.78;29395;325;63009;-63
2023/11/25 00:31:33;;;;;;;0.77;0.68;;;;;;;1.24;100.00;95985.47;29373;202;63004;-58
2023/11/25 00:32:05;;;;;;;0.60;0.60;;;;;;;1.25;100.00;95979.06;29371;214;64013;-60
2023/11/25 00:32:42;;;;;;;0.60;0.60;;;;;;;1.23;100.00;95984.69;29371;266;64009;-64
2023/11/25 00:33:15;;;;;;;2.55;2.45;;;;;;;1.24;100.00;95991.63;29395;296;63008;-64
2023/11/25 00:33:46;;;;;;;0.60;0.60;;;;;;;1.29;100.00;95983.66;29373;258;63005;-61
2023/11/25 00:34:17;;;;;;;2.55;0.80;;;;;;;1.30;100.00;95990.63;29395;206;63009;-63
2023/11/25 00:34:49;;;;;;;0.70;0.70;;;;;;;1.30;100.00;95990.63;29395;277;63005;-62
2023/11/25 00:35:25;;;;;;;0.70;0.70;;;;;;;1.29;100.00;95999.69;29395;216;63009;-65
2023/11/25 00:35:57;;;;;;;0.70;0.70;;;;;;;1.32;100.00;95993.03;29395;203;63005;-68
2023/11/25 00:36:31;;;;;;;0.60;0.60;;;;;;;1.31;100.00;95989.56;29395;240;63014;-60
2023/11/25 00:37:03;;;;;;;0.60;0.60;;;;;;;1.29;100.00;95991.66;29373;199;63005;-66
2023/11/25 00:37:35;;;;;;;0.70;0.70;;;;;;;1.31;100.00;96002.09;29373;218;63012;-58
2023/11/25 00:38:08;;;;;;;0.70;0.70;;;;;;;1.32;100.00;96007.19;29394;242;64009;-63
2023/11/25 00:38:39;;;;;;;0.62;0.62;;;;;;;1.33;100.00;95998.13;29395;262;63009;-60
2023/11/25 00:39:11;;;;;;;0.60;0.60;;;;;;;1.31;100.00;96002.09;29373;234;63004;-68
2023/11/25 00:39:43;;;;;;;0.70;0.70;;;;;;;1.30;100.00;95995.97;29395;226;63009;-59
2023/11/25 00:40:16;;;;;;;0.70;0.70;;;;;;;1.30;100.00;96006.66;29373;252;63004;-59
2023/11/25 00:40:49;;;;;;;0.70;0.70;;;;;;;1.28;100.00;96002.62;29373;219;63008;-63
2023/11/25 00:41:22;;;;;;;0.60;0.60;;;;;;;1.27;100.00;96007.16;29372;238;63005;-57
2023/11/25 00:41:54;;;;;;;0.62;0.62;;;;;;;1.29;100.00;96010.38;29395;266;63009;-65
2023/11/25 00:42:26;;;;;;;1.70;1.60;;;;;;;1.31;100.00;96004.78;29395;336;63005;-63
2023/11/25 00:42:58;;;;;;;1.27;0.93;;;;;;;1.31;100.00;96013.59;29373;206;63009;-57
2023/11/25 00:43:29;;;;;;;0.60;0.60;;;;;;;1.31;100.00;95997.56;29394;264;64009;-67
2023/11/25 00:44:00;;;;;;;0.60;0.60;;;;;;;1.32;100.00;95993.84;29394;197;64013;-76
2023/11/25 00:44:33;;;;;;;0.70;0.70;;;;;;;1.32;100.00;96007.19;29395;213;63005;-59
2023/11/25 00:45:05;;;;;;;0.60;0.60;;;;;;;1.31;100.00;96008.25;29373;241;63009;-65
2023/11/25 00:45:38;;;;;;;0.60;0.60;;;;;;;1.33;100.00;96014.16;29395;222;63004;-58
2023/11/25 00:46:09;;;;;;;0.95;0.73;;;;;;;1.35;100.00;96011.22;29394;204;64013;-59
2023/11/25 00:46:42;;;;;;;0.70;0.70;;;;;;;1.34;100.00;96018.44;29395;239;63004;-56
2023/11/25 00:47:13;;;;;;;0.70;0.70;;;;;;;1.37;100.00;96021.66;29395;237;63009;-59
2023/11/25 00:47:48;;;;;;;0.70;0.70;;;;;;;1.35;100.00;96013.91;29395;231;63004;-62
2023/11/25 00:48:19;;;;;;;0.80;0.80;;;;;;;1.31;100.00;96012.81;29394;228;64013;-70
2023/11/25 00:48:52;;;;;;;0.70;0.70;;;;;;;1.34;100.00;96014.97;29395;197;63005;-65
2023/11/25 00:49:24;;;;;;;0.70;0.70;;;;;;;1.34;100.00;96017.63;29395;246;63026;-67
2023/11/25 00:49:57;;;;;;;0.70;0.70;;;;;;;1.36;100.00;96025.41;29395;262;63005;-66
2023/11/25 00:50:28;;;;;;;0.70;0.70;;;;;;;1.33;100.00;96024.84;29395;282;63009;-59
2023/11/25 00:51:01;;;;;;;0.70;0.70;;;;;;;1.34;100.00;96023.78;29394;220;64009;-61
2023/11/25 00:51:35;;;;;;;0.70;0.70;;;;;;;1.34;100.00;96018.44;29395;243;63009;-57
2023/11/25 00:52:07;;;;;;;1.95;0.95;;;;;;;1.35;100.00;96021.91;29395;235;63005;-63
2023/11/25 00:52:39;;;;;;;0.70;0.70;;;;;;;1.36;100.00;96020.06;29395;282;63009;-73
2023/11/25 00:53:11;;;;;;;0.60;0.60;;;;;;;1.36;100.00;96028.06;29395;223;63004;-59
2023/11/25 00:53:42;;;;;;;0.60;0.60;;;;;;;1.39;100.00;96031.00;29395;293;63009;-61
2023/11/25 00:54:13;;;;;;;0.70;0.70;;;;;;;1.40;100.00;96027.28;29395;243;63004;-60
2023/11/25 00:54:45;;;;;;;0.70;0.70;;;;;;;1.40;100.00;96026.47;29395;221;63009;-71
2023/11/25 00:55:16;;;;;;;0.70;0.70;;;;;;;1.37;100.00;96027.00;29395;199;63004;-65
2023/11/25 00:55:48;;;;;;;0.60;0.60;;;;;;;1.36;100.00;96028.06;29394;218;64013;-60
2023/11/25 00:56:20;;;;;;;0.70;0.70;;;;;;;1.36;100.00;96028.06;29395;227;63005;-68
2023/11/25 00:56:51;;;;;;;17.45;1.40;;;;;;;1.38;100.00;96033.97;29390;202;64009;-60
2023/11/25 00:57:23;;;;;;;0.65;0.65;;;;;;;1.36;100.00;96030.75;29373;219;63005;-65
2023/11/25 00:57:55;;;;;;;0.70;0.70;;;;;;;1.37;100.00;96035.03;29395;200;63009;-58
2023/11/25 00:58:26;;;;;;;0.60;0.60;;;;;;;1.39;100.00;96046.28;29395;298;63012;-58
2023/11/25 00:58:59;;;;;;;0.80;0.80;;;;;;;1.40;100.00;96039.84;29395;218;63009;-60
2023/11/25 00:59:31;;;;;;;0.68;0.68;;;;;;;1.37;100.00;96049.19;29373;270;63005;-62
2023/11/25 01:00:10;;;;;;;0.60;0.60;;;;;;;1.36;100.00;96036.09;29371;216;64013;-68
2023/11/25 01:00:41;;;;;;;0.70;0.70;;;;;;;1.37;100.00;96048.41;29395;210;63012;-61
2023/11/25 01:01:13;;;;;;;0.70;0.70;;;;;;;1.37;100.00;96043.84;29373;203;63009;-60
2023/11/25 01:01:45;;;;;;;0.70;0.70;;;;;;;1.38;100.00;96044.66;29395;215;63004;-63
2023/11/25 01:02:16;;;;;;;0.70;0.70;;;;;;;1.34;100.00;96050.50;29373;229;63009;-60
2023/11/25 01:02:48;;;;;;;1.55;1.30;;;;;;;1.38;100.00;96050.00;29373;229;63004;-60
2023/11/25 01:03:19;;;;;;;0.70;0.70;;;;;;;1.38;100.00;96045.47;29373;235;63008;-66
2023/11/25 01:03:50;;;;;;;0.60;0.60;;;;;;;1.38;100.00;96045.47;29373;204;63005;-69
2023/11/25 01:04:23;;;;;;;0.60;0.60;;;;;;;1.32;100.00;96047.28;29371;202;64014;-67
2023/11/25 01:04:55;;;;;;;0.65;0.65;;;;;;;1.36;100.00;96052.13;29373;230;63005;-62
2023/11/25 01:05:26;;;;;;;0.80;0.80;;;;;;;1.36;100.00;96052.13;29373;254;63009;-60
2023/11/25 01:05:59;;;;;;;0.70;0.70;;;;;;;1.39;100.00;96062.31;29373;265;63005;-73
2023/11/25 01:06:31;;;;;;;0.70;0.70;;;;;;;1.37;100.00;96059.09;29373;213;63009;-67
2023/11/25 01:07:02;;;;;;;0.70;0.70;;;;;;;1.39;100.00;96060.41;29373;234;63005;-64
2023/11/25 01:07:33;;;;;;;0.60;0.60;;;;;;;1.37;100.00;96053.75;29373;229;63009;-55
2023/11/25 01:08:05;;;;;;;1.15;1.15;;;;;;;1.33;99.98;96048.09;29373;244;63004;-75
2023/11/25 01:08:37;;;;;;;0.70;0.70;;;;;;;1.28;100.00;96046.19;29373;206;63009;-76
2023/11/25 01:09:08;;;;;;;0.70;0.70;;;;;;;1.26;100.00;96059.00;29395;196;63004;-71
2023/11/25 01:09:40;;;;;;;0.60;0.60;;;;;;;1.28;100.00;96072.09;29394;234;64013;-58
2023/11/25 01:10:11;;;;;;;0.70;0.70;;;;;;;1.32;100.00;96067.87;29395;234;63004;-64
2023/11/25 01:10:42;;;;;;;0.60;0.60;;;;;;;1.33;100.00;96067.63;29373;202;63008;-60
2023/11/25 01:11:16;;;;;;;0.60;0.60;;;;;;;1.34;99.18;96061.22;29395;203;63010;-64
2023/11/25 01:11:50;;;;;;;0.60;0.60;;;;;;;1.38;98.35;96058.03;29395;216;63009;-62
2023/11/25 01:12:21;;;;;;;0.60;0.60;;;;;;;1.41;98.76;96060.16;29395;238;63005;-58
2023/11/25 01:12:53;;;;;;;0.70;0.70;;;;;;;1.42;98.48;96064.44;29373;198;63009;-60
2023/11/25 01:13:24;;;;;;;0.60;0.60;;;;;;;1.43;98.12;96063.38;29395;224;63005;-68
2023/11/25 01:13:55;;;;;;;0.70;0.70;;;;;;;1.42;97.70;96062.59;29395;235;63009;-61
2023/11/25 01:14:27;;;;;;;0.70;0.70;;;;;;;1.40;98.29;96058.56;29395;242;63005;-68
2023/11/25 01:14:59;;;;;;;0.70;0.70;;;;;;;1.39;97.96;96062.31;29394;233;64013;-64
2023/11/25 01:15:30;;;;;;;0.62;0.62;;;;;;;1.40;97.40;96075.41;29395;337;63004;-62
2023/11/25 01:16:01;;;;;;;0.70;0.70;;;;;;;1.41;95.73;96060.16;29395;229;63018;-60
2023/11/25 01:16:33;;;;;;;0.60;0.60;;;;;;;1.41;95.71;96069.00;29395;283;63004;-64
2023/11/25 01:17:04;;;;;;;0.60;0.60;;;;;;;1.40;95.18;96071.91;29395;335;63009;-63
2023/11/25 01:17:35;;;;;;;0.70;0.70;;;;;;;1.37;95.61;96080.47;29395;219;63004;-62
2023/11/25 01:18:06;;;;;;;1.02;1.02;;;;;;;1.37;95.84;96067.91;29373;245;63008;-60
2023/11/25 01:18:41;;;;;;;0.68;0.68;;;;;;;1.35;96.33;96072.72;29395;243;63004;-62
2023/11/25 01:19:12;;;;;;;0.70;0.70;;;;;;;1.39;96.07;96089.03;29373;281;63009;-59
2023/11/25 01:19:44;;;;;;;0.60;0.60;;;;;;;1.39;94.65;96083.69;29395;221;63005;-67
2023/11/25 01:20:15;;;;;;;0.68;0.68;;;;;;;1.34;95.62;96071.91;29394;289;64013;-64
2023/11/25 01:20:48;;;;;;;0.60;0.60;;;;;;;1.36;96.06;96074.31;29395;235;63005;-58
2023/11/25 01:21:19;;;;;;;0.73;0.73;;;;;;;1.39;95.75;96091.72;29395;244;63009;-62
2023/11/25 01:21:52;;;;;;;0.70;0.70;;;;;;;1.38;95.18;96074.88;29395;218;63005;-69
2023/11/25 01:22:24;;;;;;;0.68;0.68;;;;;;;1.36;95.00;96089.53;29373;230;63009;-55
2023/11/25 01:22:55;;;;;;;0.70;0.70;;;;;;;1.34;94.99;96082.59;29395;200;63004;-58
2023/11/25 01:23:27;;;;;;;0.60;0.60;;;;;;;1.34;95.87;96082.59;29394;269;64013;-65
2023/11/25 01:23:59;;;;;;;0.62;0.62;;;;;;;1.35;95.56;96083.41;29373;267;63004;-63
2023/11/25 01:24:31;;;;;;;0.70;0.70;;;;;;;1.31;96.25;96082.28;29395;197;63009;-69
2023/11/25 01:25:03;;;;;;;0.70;0.70;;;;;;;1.33;96.40;96089.00;29394;203;64008;-64
2023/11/25 01:25:34;;;;;;;0.70;0.70;;;;;;;1.33;96.02;96088.19;29395;207;63009;-58
2023/11/25 01:26:06;;;;;;;0.70;0.70;;;;;;;1.34;95.93;96089.81;29373;226;63005;-58
2023/11/25 01:26:43;;;;;;;0.70;0.70;;;;;;;1.37;95.39;96089.28;29373;247;63009;-56
2023/11/25 01:27:14;;;;;;;1.45;1.45;;;;;;;1.34;95.75;96109.31;29372;202;63005;-63
2023/11/25 01:27:46;;;;;;;0.70;0.70;;;;;;;1.35;96.07;96104.78;29395;286;63009;-71
2023/11/25 01:28:18;;;;;;;0.93;0.93;;;;;;;1.33;96.29;96110.38;29395;202;63012;-58
2023/11/25 01:28:49;;;;;;;0.60;0.60;;;;;;;1.31;95.67;96104.47;29395;238;63009;-59
2023/11/25 01:29:22;;;;;;;0.60;0.60;;;;;;;1.32;95.71;96114.09;29395;196;63005;-72
2023/11/25 01:29:53;;;;;;;0.60;0.60;;;;;;;1.31;95.62;96109.81;29371;304;64013;-61
2023/11/25 01:30:25;;;;;;;0.60;0.60;;;;;;;1.30;95.79;96108.22;29373;257;63004;-64
2023/11/25 01:30:57;;;;;;;0.70;0.70;;;;;;;1.29;96.45;96103.91;29373;208;63009;-60
2023/11/25 01:31:28;;;;;;;0.60;0.60;;;;;;;1.23;96.88;96112.94;29373;272;63004;-63
2023/11/25 01:32:00;;;;;;;0.60;0.60;;;;;;;1.21;97.20;96101.69;29373;225;63009;-68
2023/11/25 01:32:35;;;;;;;0.70;0.70;;;;;;;1.23;97.76;96102.25;29395;197;63004;-69
2023/11/25 01:33:06;;;;;;;0.60;0.60;;;;;;;1.23;97.58;96110.28;29395;230;63009;-57
2023/11/25 01:33:38;;;;;;;0.70;0.70;;;;;;;1.26;96.92;96114.31;29394;247;64009;-55
2023/11/25 01:34:09;;;;;;;1.77;1.67;;;;;;;1.29;96.61;96111.94;29395;213;63019;-55
2023/11/25 01:34:41;;;;;;;0.70;0.70;;;;;;;1.26;96.64;96109.78;29395;219;63005;-67
2023/11/25 01:35:18;;;;;;;0.70;0.70;;;;;;;1.25;96.30;96116.16;29395;226;63009;-64
2023/11/25 01:35:49;;;;;;;0.90;0.90;;;;;;;1.24;96.42;96109.22;29395;229;63005;-60
2023/11/25 01:36:21;;;;;;;0.80;0.80;;;;;;;1.26;96.27;96117.78;29395;217;63009;-61
2023/11/25 01:36:53;;;;;;;0.60;0.60;;;;;;;1.22;97.19;96126.56;29395;210;63005;-64
2023/11/25 01:37:26;;;;;;;0.70;0.70;;;;;;;1.22;96.99;96124.69;29395;209;63009;-65
2023/11/25 01:37:59;;;;;;;0.70;0.70;;;;;;;1.21;97.19;96125.75;29395;313;63004;-57
2023/11/25 01:38:33;;;;;;;0.70;0.70;;;;;;;1.18;96.59;96118.22;29371;197;64013;-58
2023/11/25 01:39:07;;;;;;;0.70;0.70;;;;;;;1.19;96.91;96124.38;29395;209;63009;-61
2023/11/25 01:39:38;;;;;;;0.70;0.70;;;;;;;1.16;97.29;96120.34;29373;222;63009;-69
2023/11/25 01:40:11;;;;;;;0.60;0.60;;;;;;;1.14;97.58;96122.47;29395;219;63004;-64
2023/11/25 01:40:43;;;;;;;0.70;0.70;;;;;;;1.14;97.47;96129.66;29394;232;64014;-61
2023/11/25 01:41:14;;;;;;;0.70;0.70;;;;;;;1.16;97.28;96128.37;29395;237;63005;-64
2023/11/25 01:41:45;;;;;;;0.65;0.65;;;;;;;1.18;96.56;96122.78;29373;277;63009;-73
2023/11/25 01:42:17;;;;;;;0.68;0.68;;;;;;;1.18;96.79;96126.25;29395;290;63005;-57
2023/11/25 01:42:49;;;;;;;0.70;0.70;;;;;;;1.20;97.02;96131.34;29373;227;63009;-61
2023/11/25 01:43:23;;;;;;;0.80;0.80;;;;;;;1.23;96.76;96134.31;29395;212;63005;-70
2023/11/25 01:43:54;;;;;;;0.60;0.60;;;;;;;1.19;97.16;96127.88;29394;220;64013;-63
2023/11/25 01:44:26;;;;;;;0.60;0.60;;;;;;;1.19;97.24;96127.88;29395;237;63009;-73
2023/11/25 01:44:57;;;;;;;0.70;0.70;;;;;;;1.17;97.57;96135.31;29395;218;63009;-67
2023/11/25 01:45:28;;;;;;;0.70;0.70;;;;;;;1.15;97.75;96137.44;29394;214;64009;-59
2023/11/25 01:46:04;;;;;;;0.70;0.70;;;;;;;1.14;98.03;96135.81;29394;218;64013;-59
2023/11/25 01:46:37;;;;;;;0.68;0.68;;;;;;;1.15;97.91;96137.44;29395;218;63004;-59
2023/11/25 01:47:09;;;;;;;0.70;0.70;;;;;;;1.16;97.95;96139.06;29395;207;63009;-56
2023/11/25 01:47:42;;;;;;;0.70;0.70;;;;;;;1.23;97.21;96139.66;29373;255;63008;-64
2023/11/25 01:48:14;;;;;;;0.70;0.70;;;;;;;1.20;97.24;96139.34;29373;230;63009;-54
2023/11/25 01:48:46;;;;;;;0.60;0.60;;;;;;;1.19;97.22;96138.56;29373;219;63005;-71
2023/11/25 01:49:21;;;;;;;0.70;0.70;;;;;;;1.23;97.65;96144.19;29373;247;63009;-70
2023/11/25 01:49:53;;;;;;;0.70;0.70;;;;;;;1.22;97.46;96132.72;29395;269;63010;-62
2023/11/25 01:50:27;;;;;;;0.60;0.60;;;;;;;1.23;97.00;96130.84;29373;224;63009;-76
2023/11/25 01:51:02;;;;;;;0.65;0.65;;;;;;;1.19;97.10;96141.22;29394;218;64009;-69
2023/11/25 01:51:42;;;;;;;0.70;0.70;;;;;;;1.23;97.36;96150.34;29395;208;63009;-57
2023/11/25 01:52:14;;;;;;;0.70;0.70;;;;;;;1.26;96.41;96141.84;29395;262;63005;-69
2023/11/25 01:52:48;;;;;;;0.70;0.70;;;;;;;1.23;96.47;96139.66;29395;229;63009;-65
2023/11/25 01:53:20;;;;;;;0.70;0.70;;;;;;;1.19;96.83;96135.88;29395;248;63004;-70
2023/11/25 01:53:51;;;;;;;0.70;0.70;;;;;;;1.14;97.52;96141.16;29373;197;63009;-73
2023/11/25 01:54:24;;;;;;;0.70;0.70;;;;;;;1.14;97.80;96149.19;29395;221;63004;-61
2023/11/25 01:54:56;;;;;;;0.60;0.60;;;;;;;1.16;97.08;96147.06;29395;202;63008;-60
2023/11/25 01:55:32;;;;;;;0.60;0.60;;;;;;;1.20;97.06;96150.84;29394;212;64008;-57
2023/11/25 01:56:04;;;;;;;0.60;0.60;;;;;;;1.19;96.89;96149.25;29394;237;64014;-65
2023/11/25 01:56:36;;;;;;;0.90;0.90;;;;;;;1.20;96.39;96150.06;29395;261;63005;-61
2023/11/25 01:57:08;;;;;;;0.70;0.70;;;;;;;1.17;96.73;96140.66;29395;268;63009;-61
2023/11/25 01:57:40;;;;;;;0.60;0.60;;;;;;;1.21;96.49;96157.81;29395;216;63005;-65
2023/11/25 01:58:18;;;;;;;0.60;0.60;;;;;;;1.22;96.40;96148.75;29394;208;64013;-74
2023/11/25 01:58:49;;;;;;;0.68;0.68;;;;;;;1.19;95.85;96151.91;29395;225;63011;-67
2023/11/25 01:59:25;;;;;;;0.68;0.68;;;;;;;1.17;95.96;96145.19;29395;214;63009;-71
2023/11/25 01:59:57;;;;;;;0.70;0.70;;;;;;;1.14;96.40;96151.84;29395;197;63004;-61
2023/11/25 02:00:28;;;;;;;0.62;0.62;;;;;;;1.13;96.75;96144.91;29395;239;63009;-69
2023/11/25 02:01:00;;;;;;;0.70;0.70;;;;;;;1.13;97.01;96152.09;29395;238;63004;-62
2023/11/25 02:01:33;;;;;;;0.70;0.70;;;;;;;1.14;97.08;96157.19;29394;206;64013;-66
2023/11/25 02:02:05;;;;;;;0.70;0.70;;;;;;;1.13;97.03;96160.13;29395;235;63004;-59
2023/11/25 02:02:37;;;;;;;0.70;0.70;;;;;;;1.12;96.76;96153.16;29395;232;63008;-58
2023/11/25 02:03:13;;;;;;;0.70;0.70;;;;;;;1.10;96.98;96166.78;29395;228;63004;-55
2023/11/25 02:03:48;;;;;;;0.70;0.70;;;;;;;1.15;96.73;96153.47;29373;346;63009;-67
2023/11/25 02:04:20;;;;;;;0.70;0.70;;;;;;;1.16;95.73;96155.09;29373;214;63005;-59
2023/11/25 02:04:52;;;;;;;0.70;0.70;;;;;;;1.19;95.97;96149.25;29395;197;63009;-74
2023/11/25 02:05:24;;;;;;;0.70;0.70;;;;;;;1.17;95.81;96151.34;29395;231;63005;-64
2023/11/25 02:05:56;;;;;;;0.68;0.68;;;;;;;1.18;96.44;96154.84;29395;238;63009;-61
2023/11/25 02:06:27;;;;;;;0.70;0.70;;;;;;;1.12;95.47;96142.47;29394;281;64009;-69
2023/11/25 02:07:00;;;;;;;0.70;0.70;;;;;;;1.08;96.28;96150.19;29395;240;63009;-64
2023/11/25 02:07:35;;;;;;;0.70;0.70;;;;;;;1.10;96.43;96160.63;29371;318;64009;-72
2023/11/25 02:08:09;;;;;;;0.70;0.70;;;;;;;1.07;95.97;96153.91;29395;238;63009;-64
2023/11/25 02:08:43;;;;;;;0.70;0.70;;;;;;;1.09;95.80;96159.81;29373;240;63004;-65
2023/11/25 02:09:16;;;;;;;0.70;0.70;;;;;;;1.10;95.30;96158.75;29373;206;63016;-76
2023/11/25 02:09:47;;;;;;;0.88;0.85;;;;;;;1.13;95.41;96150.25;29373;252;63004;-61
2023/11/25 02:10:19;;;;;;;0.62;0.62;;;;;;;1.12;95.11;96148.62;29373;206;63008;-56
2023/11/25 02:10:52;;;;;;;0.70;0.70;;;;;;;1.15;95.14;96153.47;29373;239;63015;-60
2023/11/25 02:11:25;;;;;;;0.77;0.77;;;;;;;1.15;95.00;96164.16;29373;203;63014;-65
2023/11/25 02:11:58;;;;;;;0.70;0.70;;;;;;;1.14;94.76;96159.06;29373;199;63005;-69
2023/11/25 02:12:34;;;;;;;0.65;0.65;;;;;;;1.12;95.26;96164.66;29371;224;64013;-63
2023/11/25 02:13:09;;;;;;;0.70;0.70;;;;;;;1.10;95.54;96172.13;29373;197;63005;-57
2023/11/25 02:13:40;;;;;;;0.70;0.70;;;;;;;1.11;95.51;96163.03;29395;204;63009;-64
2023/11/25 02:14:12;;;;;;;0.80;0.80;;;;;;;1.07;95.35;96166.47;29394;280;64009;-68
2023/11/25 02:14:44;;;;;;;0.70;0.70;;;;;;;1.09;95.76;96165.16;29395;208;63009;-67
2023/11/25 02:15:15;;;;;;;0.60;0.60;;;;;;;1.12;95.81;96169.19;29395;210;63004;-64
2023/11/25 02:15:46;;;;;;;0.70;0.70;;;;;;;1.15;95.58;96164.16;29395;225;63021;-64
2023/11/25 02:16:20;;;;;;;0.80;0.80;;;;;;;1.15;95.25;96169.50;29395;229;63004;-59
2023/11/25 02:16:54;;;;;;;0.70;0.70;;;;;;;1.17;95.15;96164.72;29373;302;63008;-60
2023/11/25 02:17:25;;;;;;;0.70;0.70;;;;;;;1.14;95.26;96164.41;29373;212;63004;-72
2023/11/25 02:17:56;;;;;;;1.15;1.15;;;;;;;1.14;95.52;96162.53;29373;216;63009;-77
2023/11/25 02:18:28;;;;;;;0.70;0.70;;;;;;;1.10;95.97;96164.09;29394;232;64009;-76
2023/11/25 02:18:59;;;;;;;0.62;0.62;;;;;;;1.07;96.02;96171.81;29395;211;63018;-59
2023/11/25 02:19:31;;;;;;;0.62;0.62;;;;;;;1.09;95.83;96169.69;29395;220;63005;-59
2023/11/25 02:20:10;;;;;;;0.70;0.70;;;;;;;1.11;95.77;96172.91;29395;210;63009;-59
2023/11/25 02:20:41;;;;;;;0.70;0.70;;;;;;;1.11;95.81;96167.56;29395;261;63005;-70
2023/11/25 02:21:16;;;;;;;0.80;0.80;;;;;;;1.09;96.30;96175.84;29373;206;63009;-72
2023/11/25 02:21:47;;;;;;;0.60;0.60;;;;;;;1.09;96.71;96175.84;29395;262;63004;-69
2023/11/25 02:22:18;;;;;;;2.15;2.05;;;;;;;1.07;96.92;96177.16;29395;307;63009;-62
2023/11/25 02:22:59;;;;;;;0.70;0.70;;;;;;;1.06;96.51;96173.66;29371;205;64009;-63
2023/11/25 02:23:34;;;;;;;;;;;;;;;1.07;96.46;96188.63;29996;983;6004;-64
2023/11/25 02:24:07;;;;;;;0.70;0.70;;;;;;;1.09;95.46;96170.50;29400;333;63009;-72
2023/11/25 02:24:42;;;;;;;0.70;0.70;;;;;;;1.08;96.22;96174.22;29373;203;63004;-68
2023/11/25 02:25:15;;;;;;;0.70;0.70;;;;;;;1.01;96.75;96178.97;29373;228;63014;-71
2023/11/25 02:25:50;;;;;;;0.95;0.95;;;;;;;0.97;97.50;96177.84;29394;271;64023;-64
2023/11/25 02:26:22;;;;;;;0.60;0.60;;;;;;;0.94;97.91;96175.69;29373;275;63009;-69
2023/11/25 02:27:00;;;;;;;0.70;0.70;;;;;;;0.88;98.61;96176.69;29371;197;64009;-70
2023/11/25 02:27:31;;;;;;;0.70;0.70;;;;;;;0.87;99.24;96183.06;29371;277;64005;-68
2023/11/25 02:28:04;;;;;;;0.70;0.70;;;;;;;0.91;99.40;96178.84;29373;214;63005;-61
2023/11/25 02:28:35;;;;;;;0.90;0.90;;;;;;;0.93;98.91;96182.09;29372;347;64009;-57
2023/11/25 02:29:10;;;;;;;0.70;0.70;;;;;;;1.00;97.51;96177.38;29373;243;63005;-55
2023/11/25 02:29:43;;;;;;;0.70;0.70;;;;;;;1.01;97.37;96181.66;29373;212;63009;-69
2023/11/25 02:30:19;;;;;;;0.70;0.70;;;;;;;1.05;97.22;96184.59;29395;242;63015;-58
2023/11/25 02:30:51;;;;;;;0.70;0.70;;;;;;;1.09;96.66;96183.84;29373;205;63015;-63
2023/11/25 02:31:23;;;;;;;0.70;0.70;;;;;;;1.13;95.70;96182.31;29373;221;63004;-59
2023/11/25 02:31:54;;;;;;;0.70;0.70;;;;;;;1.17;95.48;96175.41;29395;304;63008;-71
2023/11/25 02:32:25;;;;;;;0.70;0.70;;;;;;;1.21;95.25;96183.72;29373;198;63004;-57
2023/11/25 02:32:57;;;;;;;0.70;0.70;;;;;;;1.17;95.32;96171.94;29394;205;64014;-73
2023/11/25 02:33:34;;;;;;;0.60;0.60;;;;;;;1.13;95.86;96168.94;29395;197;63005;-72
2023/11/25 02:34:09;;;;;;;0.70;0.70;;;;;;;1.15;95.83;96179.38;29395;242;63009;-60
2023/11/25 02:34:40;;;;;;;0.60;0.60;;;;;;;1.08;95.66;96176.91;29373;197;63017;-70
2023/11/25 02:35:14;;;;;;;0.70;0.70;;;;;;;1.06;95.95;96175.53;29373;215;63017;-71
2023/11/25 02:35:46;;;;;;;0.70;0.70;;;;;;;1.02;96.14;96169.91;29395;229;63005;-64